sensor_id;sensor_type;location;lat;lon;timestamp;P1;durP1;ratioP1;P2;durP2;ratioP2
50555;SDS011;36508;52.512;13.450;2024-03-08T00:00:14;24.43;;;21.43;;
50555;SDS011;36508;52.512;13.450;2024-03-08T00:02:43;24.43;;;21.80;;
50555;SDS011;36508;52.512;13.450;2024-03-08T00:05:10;23.70;;;19.83;;
50555;SDS011;36508;52.512;13.450;2024-03-08T00:07:37;30.50;;;21.67;;
50555;SDS011;36508;52.512;13.450;2024-03-08T00:10:03;26.80;;;21.80;;
50555;SDS011;36508;52.512;13.450;2024-03-08T00:12:30;25.63;;;22.53;;
50555;SDS011;36508;52.512;13.450;2024-03-08T00:14:56;27.77;;;22.50;;
50555;SDS011;36508;52.512;13.450;2024-03-08T00:17:21;30.00;;;23.87;;
50555;SDS011;36508;52.512;13.450;2024-03-08T00:19:50;25.27;;;21.30;;
50555;SDS011;36508;52.512;13.450;2024-03-08T00:22:16;23.47;;;21.07;;
50555;SDS011;36508;52.512;13.450;2024-03-08T00:24:42;26.43;;;22.97;;
50555;SDS011;36508;52.512;13.450;2024-03-08T00:27:08;24.03;;;20.47;;
50555;SDS011;36508;52.512;13.450;2024-03-08T00:29:34;22.40;;;19.90;;
50555;SDS011;36508;52.512;13.450;2024-03-08T00:32:00;22.13;;;19.67;;
50555;SDS011;36508;52.512;13.450;2024-03-08T00:34:26;24.20;;;21.13;;
50555;SDS011;36508;52.512;13.450;2024-03-08T00:36:52;24.57;;;19.60;;
50555;SDS011;36508;52.512;13.450;2024-03-08T00:39:17;24.07;;;21.07;;
50555;SDS011;36508;52.512;13.450;2024-03-08T00:41:45;25.90;;;22.70;;
50555;SDS011;36508;52.512;13.450;2024-03-08T00:44:10;21.53;;;19.37;;
50555;SDS011;36508;52.512;13.450;2024-03-08T00:46:36;22.83;;;20.47;;
50555;SDS011;36508;52.512;13.450;2024-03-08T00:49:01;27.23;;;20.13;;
50555;SDS011;36508;52.512;13.450;2024-03-08T00:51:27;22.53;;;19.97;;
50555;SDS011;36508;52.512;13.450;2024-03-08T00:53:53;26.63;;;23.23;;
50555;SDS011;36508;52.512;13.450;2024-03-08T00:56:18;25.97;;;21.80;;
50555;SDS011;36508;52.512;13.450;2024-03-08T00:58:44;24.87;;;19.63;;
50555;SDS011;36508;52.512;13.450;2024-03-08T01:01:09;24.27;;;21.63;;
50555;SDS011;36508;52.512;13.450;2024-03-08T01:03:35;30.33;;;21.37;;
50555;SDS011;36508;52.512;13.450;2024-03-08T01:06:01;24.67;;;20.07;;
50555;SDS011;36508;52.512;13.450;2024-03-08T01:08:27;24.30;;;20.50;;
50555;SDS011;36508;52.512;13.450;2024-03-08T01:10:53;30.40;;;21.70;;
50555;SDS011;36508;52.512;13.450;2024-03-08T01:13:19;25.00;;;21.43;;
50555;SDS011;36508;52.512;13.450;2024-03-08T01:15:44;25.20;;;21.43;;
50555;SDS011;36508;52.512;13.450;2024-03-08T01:18:10;28.60;;;22.30;;
50555;SDS011;36508;52.512;13.450;2024-03-08T01:20:36;24.60;;;20.17;;
50555;SDS011;36508;52.512;13.450;2024-03-08T01:23:02;26.70;;;20.70;;
50555;SDS011;36508;52.512;13.450;2024-03-08T01:25:28;26.33;;;19.03;;
50555;SDS011;36508;52.512;13.450;2024-03-08T01:27:54;26.87;;;21.20;;
50555;SDS011;36508;52.512;13.450;2024-03-08T01:30:19;26.27;;;22.33;;
50555;SDS011;36508;52.512;13.450;2024-03-08T01:32:45;24.77;;;20.67;;
50555;SDS011;36508;52.512;13.450;2024-03-08T01:35:10;23.63;;;19.43;;
50555;SDS011;36508;52.512;13.450;2024-03-08T01:37:36;23.53;;;18.37;;
50555;SDS011;36508;52.512;13.450;2024-03-08T01:40:03;24.67;;;20.00;;
50555;SDS011;36508;52.512;13.450;2024-03-08T01:42:29;25.60;;;21.73;;
50555;SDS011;36508;52.512;13.450;2024-03-08T01:44:54;25.17;;;21.13;;
50555;SDS011;36508;52.512;13.450;2024-03-08T01:47:21;24.10;;;21.57;;
50555;SDS011;36508;52.512;13.450;2024-03-08T01:49:48;24.67;;;21.03;;
50555;SDS011;36508;52.512;13.450;2024-03-08T01:52:14;24.43;;;20.33;;
50555;SDS011;36508;52.512;13.450;2024-03-08T01:54:41;27.43;;;21.10;;
50555;SDS011;36508;52.512;13.450;2024-03-08T01:57:07;29.13;;;20.80;;
50555;SDS011;36508;52.512;13.450;2024-03-08T01:59:32;27.53;;;22.27;;
50555;SDS011;36508;52.512;13.450;2024-03-08T02:02:00;29.00;;;21.93;;
50555;SDS011;36508;52.512;13.450;2024-03-08T02:04:27;24.90;;;20.17;;
50555;SDS011;36508;52.512;13.450;2024-03-08T02:06:55;26.20;;;19.73;;
50555;SDS011;36508;52.512;13.450;2024-03-08T02:09:23;23.50;;;19.40;;
50555;SDS011;36508;52.512;13.450;2024-03-08T02:11:49;24.03;;;20.73;;
50555;SDS011;36508;52.512;13.450;2024-03-08T02:14:16;26.47;;;21.43;;
50555;SDS011;36508;52.512;13.450;2024-03-08T02:16:43;26.97;;;20.90;;
50555;SDS011;36508;52.512;13.450;2024-03-08T02:19:09;26.90;;;20.67;;
50555;SDS011;36508;52.512;13.450;2024-03-08T02:21:35;26.60;;;21.40;;
50555;SDS011;36508;52.512;13.450;2024-03-08T02:24:01;25.47;;;19.90;;
50555;SDS011;36508;52.512;13.450;2024-03-08T02:26:27;27.13;;;22.37;;
50555;SDS011;36508;52.512;13.450;2024-03-08T02:28:52;28.10;;;20.70;;
50555;SDS011;36508;52.512;13.450;2024-03-08T02:31:19;28.10;;;23.83;;
50555;SDS011;36508;52.512;13.450;2024-03-08T02:33:45;27.83;;;21.57;;
50555;SDS011;36508;52.512;13.450;2024-03-08T02:36:12;23.77;;;20.10;;
50555;SDS011;36508;52.512;13.450;2024-03-08T02:38:38;23.63;;;20.93;;
50555;SDS011;36508;52.512;13.450;2024-03-08T02:41:05;27.03;;;21.53;;
50555;SDS011;36508;52.512;13.450;2024-03-08T02:43:31;31.80;;;24.47;;
50555;SDS011;36508;52.512;13.450;2024-03-08T02:45:57;27.43;;;22.40;;
50555;SDS011;36508;52.512;13.450;2024-03-08T02:48:22;22.00;;;19.17;;
50555;SDS011;36508;52.512;13.450;2024-03-08T02:53:22;23.33;;;20.20;;
50555;SDS011;36508;52.512;13.450;2024-03-08T02:55:49;27.33;;;22.50;;
50555;SDS011;36508;52.512;13.450;2024-03-08T02:58:15;26.03;;;23.30;;
50555;SDS011;36508;52.512;13.450;2024-03-08T03:00:40;25.40;;;20.93;;
50555;SDS011;36508;52.512;13.450;2024-03-08T03:03:06;25.13;;;20.33;;
50555;SDS011;36508;52.512;13.450;2024-03-08T03:05:32;24.57;;;21.33;;
50555;SDS011;36508;52.512;13.450;2024-03-08T03:07:59;24.37;;;21.80;;
50555;SDS011;36508;52.512;13.450;2024-03-08T03:10:24;25.90;;;22.33;;
50555;SDS011;36508;52.512;13.450;2024-03-08T03:12:51;27.30;;;21.60;;
50555;SDS011;36508;52.512;13.450;2024-03-08T03:15:16;31.57;;;21.97;;
50555;SDS011;36508;52.512;13.450;2024-03-08T03:17:49;29.30;;;22.90;;
50555;SDS011;36508;52.512;13.450;2024-03-08T03:20:18;26.23;;;22.60;;
50555;SDS011;36508;52.512;13.450;2024-03-08T03:22:51;25.77;;;22.90;;
50555;SDS011;36508;52.512;13.450;2024-03-08T03:27:58;37.93;;;24.30;;
50555;SDS011;36508;52.512;13.450;2024-03-08T03:30:25;27.27;;;23.17;;
50555;SDS011;36508;52.512;13.450;2024-03-08T03:32:52;31.27;;;23.27;;
50555;SDS011;36508;52.512;13.450;2024-03-08T03:35:19;32.73;;;22.97;;
50555;SDS011;36508;52.512;13.450;2024-03-08T03:37:48;34.57;;;22.90;;
50555;SDS011;36508;52.512;13.450;2024-03-08T03:40:27;28.63;;;25.53;;
50555;SDS011;36508;52.512;13.450;2024-03-08T03:42:53;23.50;;;20.30;;
50555;SDS011;36508;52.512;13.450;2024-03-08T03:45:19;29.67;;;24.33;;
50555;SDS011;36508;52.512;13.450;2024-03-08T03:47:45;27.17;;;22.80;;
50555;SDS011;36508;52.512;13.450;2024-03-08T03:50:11;35.33;;;27.07;;
50555;SDS011;36508;52.512;13.450;2024-03-08T03:52:36;29.10;;;23.47;;
50555;SDS011;36508;52.512;13.450;2024-03-08T03:55:02;26.93;;;23.73;;
50555;SDS011;36508;52.512;13.450;2024-03-08T03:57:29;25.93;;;23.23;;
50555;SDS011;36508;52.512;13.450;2024-03-08T04:02:26;31.53;;;23.00;;
50555;SDS011;36508;52.512;13.450;2024-03-08T04:04:52;34.43;;;24.70;;
50555;SDS011;36508;52.512;13.450;2024-03-08T04:07:19;30.97;;;23.53;;
50555;SDS011;36508;52.512;13.450;2024-03-08T04:09:45;29.50;;;23.13;;
50555;SDS011;36508;52.512;13.450;2024-03-08T04:12:11;30.20;;;22.80;;
50555;SDS011;36508;52.512;13.450;2024-03-08T04:14:37;31.37;;;25.53;;
50555;SDS011;36508;52.512;13.450;2024-03-08T04:17:06;30.27;;;23.80;;
50555;SDS011;36508;52.512;13.450;2024-03-08T04:19:33;26.23;;;23.43;;
50555;SDS011;36508;52.512;13.450;2024-03-08T04:21:59;34.70;;;24.97;;
50555;SDS011;36508;52.512;13.450;2024-03-08T04:24:26;30.80;;;23.33;;
50555;SDS011;36508;52.512;13.450;2024-03-08T04:26:51;32.10;;;24.43;;
50555;SDS011;36508;52.512;13.450;2024-03-08T04:29:18;30.93;;;24.50;;
50555;SDS011;36508;52.512;13.450;2024-03-08T04:31:44;32.33;;;27.63;;
50555;SDS011;36508;52.512;13.450;2024-03-08T04:34:09;30.30;;;25.60;;
50555;SDS011;36508;52.512;13.450;2024-03-08T04:36:35;28.63;;;24.80;;
50555;SDS011;36508;52.512;13.450;2024-03-08T04:39:01;31.20;;;26.27;;
50555;SDS011;36508;52.512;13.450;2024-03-08T04:41:27;31.20;;;25.47;;
50555;SDS011;36508;52.512;13.450;2024-03-08T04:43:53;28.20;;;25.20;;
50555;SDS011;36508;52.512;13.450;2024-03-08T04:46:18;31.23;;;25.33;;
50555;SDS011;36508;52.512;13.450;2024-03-08T04:48:44;31.70;;;25.40;;
50555;SDS011;36508;52.512;13.450;2024-03-08T04:51:09;29.60;;;23.80;;
50555;SDS011;36508;52.512;13.450;2024-03-08T04:53:35;38.27;;;28.30;;
50555;SDS011;36508;52.512;13.450;2024-03-08T04:56:01;31.47;;;24.30;;
50555;SDS011;36508;52.512;13.450;2024-03-08T04:58:31;34.40;;;25.30;;
50555;SDS011;36508;52.512;13.450;2024-03-08T05:01:03;28.10;;;23.63;;
50555;SDS011;36508;52.512;13.450;2024-03-08T05:03:28;34.40;;;25.80;;
50555;SDS011;36508;52.512;13.450;2024-03-08T05:05:55;33.87;;;24.33;;
50555;SDS011;36508;52.512;13.450;2024-03-08T05:08:21;36.00;;;26.17;;
50555;SDS011;36508;52.512;13.450;2024-03-08T05:10:46;30.43;;;23.20;;
50555;SDS011;36508;52.512;13.450;2024-03-08T05:13:12;30.90;;;24.70;;
50555;SDS011;36508;52.512;13.450;2024-03-08T05:15:38;35.80;;;26.57;;
50555;SDS011;36508;52.512;13.450;2024-03-08T05:18:04;29.50;;;23.80;;
50555;SDS011;36508;52.512;13.450;2024-03-08T05:20:30;31.10;;;24.60;;
50555;SDS011;36508;52.512;13.450;2024-03-08T05:22:56;32.60;;;25.03;;
50555;SDS011;36508;52.512;13.450;2024-03-08T05:25:25;32.90;;;25.13;;
50555;SDS011;36508;52.512;13.450;2024-03-08T05:27:51;32.80;;;25.83;;
50555;SDS011;36508;52.512;13.450;2024-03-08T05:30:17;36.93;;;26.47;;
50555;SDS011;36508;52.512;13.450;2024-03-08T05:32:42;31.20;;;25.53;;
50555;SDS011;36508;52.512;13.450;2024-03-08T05:35:09;37.03;;;26.33;;
50555;SDS011;36508;52.512;13.450;2024-03-08T05:37:37;30.63;;;26.00;;
50555;SDS011;36508;52.512;13.450;2024-03-08T05:40:04;33.63;;;26.20;;
50555;SDS011;36508;52.512;13.450;2024-03-08T05:42:34;29.80;;;26.00;;
50555;SDS011;36508;52.512;13.450;2024-03-08T05:45:00;32.70;;;26.73;;
50555;SDS011;36508;52.512;13.450;2024-03-08T05:47:25;35.30;;;26.30;;
50555;SDS011;36508;52.512;13.450;2024-03-08T05:49:51;40.80;;;30.77;;
50555;SDS011;36508;52.512;13.450;2024-03-08T05:52:18;37.70;;;27.00;;
50555;SDS011;36508;52.512;13.450;2024-03-08T05:54:44;30.37;;;26.80;;
50555;SDS011;36508;52.512;13.450;2024-03-08T05:57:10;37.30;;;27.23;;
50555;SDS011;36508;52.512;13.450;2024-03-08T05:59:36;34.40;;;28.03;;
50555;SDS011;36508;52.512;13.450;2024-03-08T06:02:02;39.90;;;28.17;;
50555;SDS011;36508;52.512;13.450;2024-03-08T06:04:28;35.07;;;27.50;;
50555;SDS011;36508;52.512;13.450;2024-03-08T06:06:54;46.10;;;30.70;;
50555;SDS011;36508;52.512;13.450;2024-03-08T06:09:22;33.87;;;28.30;;
50555;SDS011;36508;52.512;13.450;2024-03-08T06:11:48;33.23;;;27.57;;
50555;SDS011;36508;52.512;13.450;2024-03-08T06:14:14;41.77;;;30.43;;
50555;SDS011;36508;52.512;13.450;2024-03-08T06:16:43;33.40;;;29.20;;
50555;SDS011;36508;52.512;13.450;2024-03-08T06:19:15;35.90;;;28.50;;
50555;SDS011;36508;52.512;13.450;2024-03-08T06:21:40;39.57;;;29.87;;
50555;SDS011;36508;52.512;13.450;2024-03-08T06:24:06;36.57;;;30.30;;
50555;SDS011;36508;52.512;13.450;2024-03-08T06:26:32;35.13;;;27.80;;
50555;SDS011;36508;52.512;13.450;2024-03-08T06:28:57;33.30;;;28.90;;
50555;SDS011;36508;52.512;13.450;2024-03-08T06:31:24;40.30;;;31.90;;
50555;SDS011;36508;52.512;13.450;2024-03-08T06:33:50;36.60;;;29.23;;
50555;SDS011;36508;52.512;13.450;2024-03-08T06:36:16;40.30;;;29.83;;
50555;SDS011;36508;52.512;13.450;2024-03-08T06:38:44;33.67;;;29.60;;
50555;SDS011;36508;52.512;13.450;2024-03-08T06:41:11;33.03;;;27.40;;
50555;SDS011;36508;52.512;13.450;2024-03-08T06:43:43;38.40;;;30.30;;
50555;SDS011;36508;52.512;13.450;2024-03-08T06:46:10;36.83;;;27.50;;
50555;SDS011;36508;52.512;13.450;2024-03-08T06:48:37;37.80;;;32.27;;
50555;SDS011;36508;52.512;13.450;2024-03-08T06:51:03;33.37;;;28.17;;
50555;SDS011;36508;52.512;13.450;2024-03-08T06:53:30;35.90;;;27.60;;
50555;SDS011;36508;52.512;13.450;2024-03-08T06:55:56;35.63;;;27.73;;
50555;SDS011;36508;52.512;13.450;2024-03-08T06:58:22;35.10;;;30.87;;
50555;SDS011;36508;52.512;13.450;2024-03-08T07:00:48;32.00;;;26.60;;
50555;SDS011;36508;52.512;13.450;2024-03-08T07:03:17;37.97;;;27.83;;
50555;SDS011;36508;52.512;13.450;2024-03-08T07:05:42;35.97;;;28.50;;
50555;SDS011;36508;52.512;13.450;2024-03-08T07:08:08;41.43;;;30.83;;
50555;SDS011;36508;52.512;13.450;2024-03-08T07:10:34;36.23;;;26.90;;
50555;SDS011;36508;52.512;13.450;2024-03-08T07:13:02;38.67;;;29.67;;
50555;SDS011;36508;52.512;13.450;2024-03-08T07:15:27;33.57;;;26.30;;
50555;SDS011;36508;52.512;13.450;2024-03-08T07:17:53;32.73;;;26.50;;
50555;SDS011;36508;52.512;13.450;2024-03-08T07:20:19;35.67;;;26.40;;
50555;SDS011;36508;52.512;13.450;2024-03-08T07:22:46;37.07;;;28.73;;
50555;SDS011;36508;52.512;13.450;2024-03-08T07:25:16;32.83;;;24.77;;
50555;SDS011;36508;52.512;13.450;2024-03-08T07:27:48;32.70;;;27.27;;
50555;SDS011;36508;52.512;13.450;2024-03-08T07:30:18;33.60;;;25.57;;
50555;SDS011;36508;52.512;13.450;2024-03-08T07:33:06;32.93;;;23.37;;
50555;SDS011;36508;52.512;13.450;2024-03-08T07:35:32;40.80;;;26.53;;
50555;SDS011;36508;52.512;13.450;2024-03-08T07:38:02;35.43;;;27.30;;
50555;SDS011;36508;52.512;13.450;2024-03-08T07:40:29;29.43;;;26.30;;
50555;SDS011;36508;52.512;13.450;2024-03-08T07:42:55;42.60;;;28.30;;
50555;SDS011;36508;52.512;13.450;2024-03-08T07:45:21;34.30;;;28.17;;
50555;SDS011;36508;52.512;13.450;2024-03-08T07:47:47;36.30;;;30.37;;
50555;SDS011;36508;52.512;13.450;2024-03-08T07:50:12;39.20;;;30.27;;
50555;SDS011;36508;52.512;13.450;2024-03-08T07:52:41;33.90;;;30.20;;
50555;SDS011;36508;52.512;13.450;2024-03-08T07:55:07;38.73;;;31.63;;
50555;SDS011;36508;52.512;13.450;2024-03-08T07:57:33;37.60;;;30.93;;
50555;SDS011;36508;52.512;13.450;2024-03-08T07:59:59;36.73;;;31.70;;
50555;SDS011;36508;52.512;13.450;2024-03-08T08:02:24;41.30;;;34.37;;
50555;SDS011;36508;52.512;13.450;2024-03-08T08:04:50;44.87;;;36.07;;
50555;SDS011;36508;52.512;13.450;2024-03-08T08:07:16;44.30;;;34.97;;
50555;SDS011;36508;52.512;13.450;2024-03-08T08:09:41;41.93;;;31.90;;
50555;SDS011;36508;52.512;13.450;2024-03-08T08:12:08;40.93;;;29.70;;
50555;SDS011;36508;52.512;13.450;2024-03-08T08:14:37;34.37;;;30.87;;
50555;SDS011;36508;52.512;13.450;2024-03-08T08:17:04;33.30;;;28.00;;
50555;SDS011;36508;52.512;13.450;2024-03-08T08:19:29;33.67;;;29.00;;
50555;SDS011;36508;52.512;13.450;2024-03-08T08:21:56;44.50;;;30.20;;
50555;SDS011;36508;52.512;13.450;2024-03-08T08:24:23;36.03;;;28.70;;
50555;SDS011;36508;52.512;13.450;2024-03-08T08:26:48;32.13;;;26.87;;
50555;SDS011;36508;52.512;13.450;2024-03-08T08:29:14;36.73;;;29.43;;
50555;SDS011;36508;52.512;13.450;2024-03-08T08:31:39;29.07;;;20.70;;
50555;SDS011;36508;52.512;13.450;2024-03-08T08:34:05;31.23;;;26.67;;
50555;SDS011;36508;52.512;13.450;2024-03-08T08:36:32;31.80;;;25.87;;
50555;SDS011;36508;52.512;13.450;2024-03-08T08:38:57;36.20;;;26.33;;
50555;SDS011;36508;52.512;13.450;2024-03-08T08:41:24;27.83;;;22.43;;
50555;SDS011;36508;52.512;13.450;2024-03-08T08:43:50;30.40;;;24.33;;
50555;SDS011;36508;52.512;13.450;2024-03-08T08:46:19;24.57;;;21.93;;
50555;SDS011;36508;52.512;13.450;2024-03-08T08:48:44;31.00;;;23.70;;
50555;SDS011;36508;52.512;13.450;2024-03-08T08:51:10;29.70;;;24.30;;
50555;SDS011;36508;52.512;13.450;2024-03-08T08:53:40;37.63;;;24.67;;
50555;SDS011;36508;52.512;13.450;2024-03-08T08:56:08;33.50;;;28.60;;
50555;SDS011;36508;52.512;13.450;2024-03-08T08:58:34;26.63;;;23.57;;
50555;SDS011;36508;52.512;13.450;2024-03-08T09:01:00;26.43;;;23.40;;
50555;SDS011;36508;52.512;13.450;2024-03-08T09:03:26;28.80;;;24.07;;
50555;SDS011;36508;52.512;13.450;2024-03-08T09:05:53;28.40;;;24.70;;
50555;SDS011;36508;52.512;13.450;2024-03-08T09:08:18;28.37;;;23.50;;
50555;SDS011;36508;52.512;13.450;2024-03-08T09:10:44;30.00;;;25.70;;
50555;SDS011;36508;52.512;13.450;2024-03-08T09:13:12;28.20;;;24.50;;
50555;SDS011;36508;52.512;13.450;2024-03-08T09:15:38;26.90;;;24.10;;
50555;SDS011;36508;52.512;13.450;2024-03-08T09:18:05;31.30;;;25.20;;
50555;SDS011;36508;52.512;13.450;2024-03-08T09:20:31;30.10;;;25.53;;
50555;SDS011;36508;52.512;13.450;2024-03-08T09:22:57;35.93;;;25.60;;
50555;SDS011;36508;52.512;13.450;2024-03-08T09:25:23;28.70;;;25.70;;
50555;SDS011;36508;52.512;13.450;2024-03-08T09:27:48;30.80;;;26.67;;
50555;SDS011;36508;52.512;13.450;2024-03-08T09:30:14;30.13;;;24.70;;
50555;SDS011;36508;52.512;13.450;2024-03-08T09:32:40;26.33;;;23.57;;
50555;SDS011;36508;52.512;13.450;2024-03-08T09:35:06;30.53;;;26.07;;
50555;SDS011;36508;52.512;13.450;2024-03-08T09:37:32;31.60;;;23.83;;
50555;SDS011;36508;52.512;13.450;2024-03-08T09:39:59;28.97;;;25.33;;
50555;SDS011;36508;52.512;13.450;2024-03-08T09:42:25;28.57;;;24.07;;
50555;SDS011;36508;52.512;13.450;2024-03-08T09:44:51;28.20;;;23.50;;
50555;SDS011;36508;52.512;13.450;2024-03-08T09:47:17;27.57;;;24.70;;
50555;SDS011;36508;52.512;13.450;2024-03-08T09:49:43;29.40;;;25.47;;
50555;SDS011;36508;52.512;13.450;2024-03-08T09:52:09;28.97;;;25.77;;
50555;SDS011;36508;52.512;13.450;2024-03-08T09:54:35;28.77;;;23.43;;
50555;SDS011;36508;52.512;13.450;2024-03-08T09:57:03;26.63;;;23.30;;
50555;SDS011;36508;52.512;13.450;2024-03-08T09:59:29;30.27;;;25.27;;
50555;SDS011;36508;52.512;13.450;2024-03-08T10:02:11;24.37;;;21.77;;
50555;SDS011;36508;52.512;13.450;2024-03-08T10:04:43;27.87;;;24.80;;
50555;SDS011;36508;52.512;13.450;2024-03-08T10:07:11;24.47;;;21.83;;
50555;SDS011;36508;52.512;13.450;2024-03-08T10:09:37;27.33;;;24.60;;
50555;SDS011;36508;52.512;13.450;2024-03-08T10:12:04;28.03;;;22.97;;
50555;SDS011;36508;52.512;13.450;2024-03-08T10:14:30;27.23;;;23.20;;
50555;SDS011;36508;52.512;13.450;2024-03-08T10:16:57;25.90;;;20.87;;
50555;SDS011;36508;52.512;13.450;2024-03-08T10:19:26;25.47;;;18.90;;
50555;SDS011;36508;52.512;13.450;2024-03-08T10:21:52;24.57;;;20.63;;
50555;SDS011;36508;52.512;13.450;2024-03-08T10:24:18;28.43;;;20.07;;
50555;SDS011;36508;52.512;13.450;2024-03-08T10:26:44;20.73;;;18.77;;
50555;SDS011;36508;52.512;13.450;2024-03-08T10:29:10;24.90;;;21.23;;
50555;SDS011;36508;52.512;13.450;2024-03-08T10:31:42;28.50;;;21.57;;
50555;SDS011;36508;52.512;13.450;2024-03-08T10:34:09;23.07;;;20.20;;
50555;SDS011;36508;52.512;13.450;2024-03-08T10:36:35;23.87;;;21.37;;
50555;SDS011;36508;52.512;13.450;2024-03-08T10:39:03;25.17;;;20.80;;
50555;SDS011;36508;52.512;13.450;2024-03-08T10:41:32;21.53;;;19.33;;
50555;SDS011;36508;52.512;13.450;2024-03-08T10:49:16;19.40;;;17.40;;
50555;SDS011;36508;52.512;13.450;2024-03-08T10:51:44;20.90;;;18.80;;
50555;SDS011;36508;52.512;13.450;2024-03-08T10:54:12;24.43;;;21.87;;
50555;SDS011;36508;52.512;13.450;2024-03-08T10:56:40;20.47;;;18.37;;
50555;SDS011;36508;52.512;13.450;2024-03-08T10:59:08;20.70;;;18.50;;
50555;SDS011;36508;52.512;13.450;2024-03-08T11:01:34;20.10;;;18.10;;
50555;SDS011;36508;52.512;13.450;2024-03-08T11:04:00;21.13;;;19.03;;
50555;SDS011;36508;52.512;13.450;2024-03-08T11:06:30;24.57;;;21.97;;
50555;SDS011;36508;52.512;13.450;2024-03-08T11:08:57;22.30;;;19.97;;
50555;SDS011;36508;52.512;13.450;2024-03-08T11:11:33;20.93;;;19.03;;
50555;SDS011;36508;52.512;13.450;2024-03-08T11:14:02;19.50;;;17.70;;
50555;SDS011;36508;52.512;13.450;2024-03-08T11:18:59;24.23;;;17.70;;
50555;SDS011;36508;52.512;13.450;2024-03-08T11:21:35;19.40;;;17.60;;
50555;SDS011;36508;52.512;13.450;2024-03-08T11:24:11;23.70;;;21.60;;
50555;SDS011;36508;52.512;13.450;2024-03-08T11:26:39;22.57;;;20.30;;
50555;SDS011;36508;52.512;13.450;2024-03-08T11:31:52;20.67;;;18.53;;
50555;SDS011;36508;52.512;13.450;2024-03-08T11:34:19;21.33;;;19.20;;
50555;SDS011;36508;52.512;13.450;2024-03-08T11:36:47;21.30;;;17.87;;
50555;SDS011;36508;52.512;13.450;2024-03-08T11:39:13;20.90;;;18.77;;
50555;SDS011;36508;52.512;13.450;2024-03-08T11:41:40;21.20;;;19.20;;
50555;SDS011;36508;52.512;13.450;2024-03-08T11:44:07;21.97;;;19.50;;
50555;SDS011;36508;52.512;13.450;2024-03-08T11:46:34;21.00;;;18.97;;
50555;SDS011;36508;52.512;13.450;2024-03-08T11:49:00;20.77;;;18.80;;
50555;SDS011;36508;52.512;13.450;2024-03-08T11:51:26;21.87;;;19.77;;
50555;SDS011;36508;52.512;13.450;2024-03-08T11:53:52;20.03;;;18.13;;
50555;SDS011;36508;52.512;13.450;2024-03-08T11:56:18;22.23;;;20.03;;
50555;SDS011;36508;52.512;13.450;2024-03-08T12:01:33;20.40;;;18.50;;
50555;SDS011;36508;52.512;13.450;2024-03-08T12:03:59;21.60;;;19.33;;
50555;SDS011;36508;52.512;13.450;2024-03-08T12:06:25;21.37;;;19.30;;
50555;SDS011;36508;52.512;13.450;2024-03-08T12:08:52;19.20;;;17.43;;
50555;SDS011;36508;52.512;13.450;2024-03-08T12:11:18;19.87;;;18.13;;
50555;SDS011;36508;52.512;13.450;2024-03-08T12:13:47;19.97;;;18.17;;
50555;SDS011;36508;52.512;13.450;2024-03-08T12:16:16;19.10;;;17.20;;
50555;SDS011;36508;52.512;13.450;2024-03-08T12:18:50;20.53;;;18.43;;
50555;SDS011;36508;52.512;13.450;2024-03-08T12:21:18;21.37;;;19.33;;
50555;SDS011;36508;52.512;13.450;2024-03-08T12:23:47;18.67;;;16.77;;
50555;SDS011;36508;52.512;13.450;2024-03-08T12:26:16;21.50;;;19.40;;
50555;SDS011;36508;52.512;13.450;2024-03-08T12:28:44;20.83;;;18.93;;
50555;SDS011;36508;52.512;13.450;2024-03-08T12:31:13;25.10;;;22.60;;
50555;SDS011;36508;52.512;13.450;2024-03-08T12:36:17;21.37;;;19.27;;
50555;SDS011;36508;52.512;13.450;2024-03-08T12:38:45;20.87;;;18.80;;
50555;SDS011;36508;52.512;13.450;2024-03-08T12:41:14;20.67;;;18.90;;
50555;SDS011;36508;52.512;13.450;2024-03-08T12:43:41;18.93;;;17.23;;
50555;SDS011;36508;52.512;13.450;2024-03-08T12:46:07;21.23;;;19.33;;
50555;SDS011;36508;52.512;13.450;2024-03-08T12:51:07;21.10;;;18.40;;
50555;SDS011;36508;52.512;13.450;2024-03-08T12:53:33;21.07;;;18.83;;
50555;SDS011;36508;52.512;13.450;2024-03-08T12:55:59;21.43;;;19.40;;
50555;SDS011;36508;52.512;13.450;2024-03-08T12:58:25;21.03;;;18.70;;
50555;SDS011;36508;52.512;13.450;2024-03-08T13:00:51;22.53;;;20.30;;
50555;SDS011;36508;52.512;13.450;2024-03-08T13:03:17;20.37;;;18.47;;
50555;SDS011;36508;52.512;13.450;2024-03-08T13:05:42;22.77;;;20.57;;
50555;SDS011;36508;52.512;13.450;2024-03-08T13:08:08;20.63;;;18.83;;
50555;SDS011;36508;52.512;13.450;2024-03-08T13:10:41;22.67;;;20.57;;
50555;SDS011;36508;52.512;13.450;2024-03-08T13:13:11;20.70;;;18.90;;
50555;SDS011;36508;52.512;13.450;2024-03-08T13:15:37;20.33;;;18.53;;
50555;SDS011;36508;52.512;13.450;2024-03-08T13:18:05;22.83;;;19.60;;
50555;SDS011;36508;52.512;13.450;2024-03-08T13:20:33;22.50;;;20.30;;
50555;SDS011;36508;52.512;13.450;2024-03-08T13:25:49;20.47;;;18.57;;
50555;SDS011;36508;52.512;13.450;2024-03-08T13:28:15;18.47;;;16.77;;
50555;SDS011;36508;52.512;13.450;2024-03-08T13:30:42;22.00;;;19.77;;
50555;SDS011;36508;52.512;13.450;2024-03-08T13:33:09;21.43;;;19.23;;
50555;SDS011;36508;52.512;13.450;2024-03-08T13:35:34;20.87;;;18.83;;
50555;SDS011;36508;52.512;13.450;2024-03-08T13:38:00;19.13;;;17.43;;
50555;SDS011;36508;52.512;13.450;2024-03-08T13:40:28;18.00;;;16.40;;
50555;SDS011;36508;52.512;13.450;2024-03-08T13:42:55;17.03;;;15.43;;
50555;SDS011;36508;52.512;13.450;2024-03-08T13:45:21;18.97;;;17.27;;
50555;SDS011;36508;52.512;13.450;2024-03-08T13:47:49;19.97;;;18.17;;
50555;SDS011;36508;52.512;13.450;2024-03-08T13:50:16;18.40;;;16.60;;
50555;SDS011;36508;52.512;13.450;2024-03-08T13:52:46;18.23;;;16.60;;
50555;SDS011;36508;52.512;13.450;2024-03-08T13:55:16;18.73;;;17.10;;
50555;SDS011;36508;52.512;13.450;2024-03-08T13:57:42;19.20;;;17.37;;
50555;SDS011;36508;52.512;13.450;2024-03-08T14:00:10;18.30;;;16.60;;
50555;SDS011;36508;52.512;13.450;2024-03-08T14:02:36;20.23;;;18.43;;
50555;SDS011;36508;52.512;13.450;2024-03-08T14:05:02;18.17;;;16.67;;
50555;SDS011;36508;52.512;13.450;2024-03-08T14:07:28;17.37;;;15.67;;
50555;SDS011;36508;52.512;13.450;2024-03-08T14:09:54;18.03;;;15.93;;
50555;SDS011;36508;52.512;13.450;2024-03-08T14:12:20;21.37;;;19.13;;
50555;SDS011;36508;52.512;13.450;2024-03-08T14:14:45;17.50;;;15.70;;
50555;SDS011;36508;52.512;13.450;2024-03-08T14:17:11;18.90;;;17.23;;
50555;SDS011;36508;52.512;13.450;2024-03-08T14:19:42;20.13;;;18.13;;
50555;SDS011;36508;52.512;13.450;2024-03-08T14:22:07;18.67;;;16.93;;
50555;SDS011;36508;52.512;13.450;2024-03-08T14:24:38;19.50;;;16.80;;
50555;SDS011;36508;52.512;13.450;2024-03-08T14:27:04;18.77;;;16.90;;
50555;SDS011;36508;52.512;13.450;2024-03-08T14:29:33;20.50;;;18.67;;
50555;SDS011;36508;52.512;13.450;2024-03-08T14:32:02;19.17;;;17.20;;
